Paris, Pennsylvania
Current Conditions -  °F | °C
As of 10:51 AM on Sunday 25 Jan 2015 (Local Time) from KPIT Reporting Station
Haze Haze  
Wind Chill: 30°   Ceiling: 900
Heat Index: 34°   Visibility: 4mi
Dew Point: 31°   Wind: 5mph
Humidity: 89%   Direction: 240°WSW
Pressure: 29.8"   Gusts: NA
Location:  40.398°N, 80.4369°W
Report Text: KPIT 251551Z 24004KT 4SM BR OVC009 01/M01 A2980 RMK AO2 SLP108 T00111006
Loading
Personal Weather Stations






























Interactive Weather Map New forecast layout! Learn more

10-Day Weather Forecast

Advertisements
Track Severe Weather on mobile